sensor_id;sensor_type;location;lat;lon;timestamp;temperature;humidity
37432;DHT22;23292;51.300;6.252;2024-01-15T00:00:23;1.30;99.90
37432;DHT22;23292;51.300;6.252;2024-01-15T00:02:50;1.20;99.90
37432;DHT22;23292;51.300;6.252;2024-01-15T00:05:17;1.30;99.90
37432;DHT22;23292;51.300;6.252;2024-01-15T00:07:44;1.30;99.90
37432;DHT22;23292;51.300;6.252;2024-01-15T00:10:10;1.40;99.90
37432;DHT22;23292;51.300;6.252;2024-01-15T00:12:37;1.30;99.90
37432;DHT22;23292;51.300;6.252;2024-01-15T00:15:04;1.30;99.90
37432;DHT22;23292;51.300;6.252;2024-01-15T00:17:32;1.40;99.90
37432;DHT22;23292;51.300;6.252;2024-01-15T00:19:59;1.30;99.90
37432;DHT22;23292;51.300;6.252;2024-01-15T00:22:26;1.30;99.90
37432;DHT22;23292;51.300;6.252;2024-01-15T00:24:57;1.20;99.90
37432;DHT22;23292;51.300;6.252;2024-01-15T00:27:24;1.30;99.90
37432;DHT22;23292;51.300;6.252;2024-01-15T00:29:51;1.30;99.90
37432;DHT22;23292;51.300;6.252;2024-01-15T00:32:18;1.30;99.90
37432;DHT22;23292;51.300;6.252;2024-01-15T00:34:46;1.30;99.90
37432;DHT22;23292;51.300;6.252;2024-01-15T00:37:13;1.20;99.90
37432;DHT22;23292;51.300;6.252;2024-01-15T00:39:40;1.30;99.90
37432;DHT22;23292;51.300;6.252;2024-01-15T00:42:07;1.30;99.90
37432;DHT22;23292;51.300;6.252;2024-01-15T00:44:34;1.20;99.90
37432;DHT22;23292;51.300;6.252;2024-01-15T00:47:00;1.30;99.90
37432;DHT22;23292;51.300;6.252;2024-01-15T00:49:28;1.40;99.90
37432;DHT22;23292;51.300;6.252;2024-01-15T00:51:55;1.30;99.90
37432;DHT22;23292;51.300;6.252;2024-01-15T00:54:22;1.40;99.90
37432;DHT22;23292;51.300;6.252;2024-01-15T00:56:49;1.40;99.90
37432;DHT22;23292;51.300;6.252;2024-01-15T00:59:16;1.40;99.90
37432;DHT22;23292;51.300;6.252;2024-01-15T01:01:43;1.50;99.90
37432;DHT22;23292;51.300;6.252;2024-01-15T01:04:10;1.40;99.90
37432;DHT22;23292;51.300;6.252;2024-01-15T01:06:38;1.40;99.90
37432;DHT22;23292;51.300;6.252;2024-01-15T01:09:05;1.40;99.90
37432;DHT22;23292;51.300;6.252;2024-01-15T01:11:32;1.50;99.90
37432;DHT22;23292;51.300;6.252;2024-01-15T01:13:59;1.40;99.90
37432;DHT22;23292;51.300;6.252;2024-01-15T01:16:27;1.40;99.90
37432;DHT22;23292;51.300;6.252;2024-01-15T01:18:54;1.50;99.90
37432;DHT22;23292;51.300;6.252;2024-01-15T01:21:21;1.40;99.90
37432;DHT22;23292;51.300;6.252;2024-01-15T01:23:48;1.50;99.90
37432;DHT22;23292;51.300;6.252;2024-01-15T01:26:17;1.50;99.90
37432;DHT22;23292;51.300;6.252;2024-01-15T01:28:44;1.50;99.90
37432;DHT22;23292;51.300;6.252;2024-01-15T01:31:11;1.50;99.90
37432;DHT22;23292;51.300;6.252;2024-01-15T01:33:41;1.50;99.90
37432;DHT22;23292;51.300;6.252;2024-01-15T01:36:09;1.50;99.90
37432;DHT22;23292;51.300;6.252;2024-01-15T01:38:37;1.50;99.90
37432;DHT22;23292;51.300;6.252;2024-01-15T01:41:05;1.50;99.90
37432;DHT22;23292;51.300;6.252;2024-01-15T01:43:32;1.50;99.90
37432;DHT22;23292;51.300;6.252;2024-01-15T01:46:00;1.50;99.90
37432;DHT22;23292;51.300;6.252;2024-01-15T01:48:28;1.50;99.90
37432;DHT22;23292;51.300;6.252;2024-01-15T01:51:02;1.40;99.90
37432;DHT22;23292;51.300;6.252;2024-01-15T01:53:29;1.50;99.90
37432;DHT22;23292;51.300;6.252;2024-01-15T01:55:58;1.50;99.90
37432;DHT22;23292;51.300;6.252;2024-01-15T01:58:25;1.40;99.90
37432;DHT22;23292;51.300;6.252;2024-01-15T02:00:53;1.50;99.90
37432;DHT22;23292;51.300;6.252;2024-01-15T02:03:20;1.50;99.90
37432;DHT22;23292;51.300;6.252;2024-01-15T02:05:48;1.40;99.90
37432;DHT22;23292;51.300;6.252;2024-01-15T02:08:16;1.40;99.90
37432;DHT22;23292;51.300;6.252;2024-01-15T02:10:43;1.40;99.90
37432;DHT22;23292;51.300;6.252;2024-01-15T02:13:11;1.40;99.90
37432;DHT22;23292;51.300;6.252;2024-01-15T02:15:37;1.40;99.90
37432;DHT22;23292;51.300;6.252;2024-01-15T02:18:06;1.30;99.90
37432;DHT22;23292;51.300;6.252;2024-01-15T02:20:35;1.40;99.90
37432;DHT22;23292;51.300;6.252;2024-01-15T02:23:08;1.40;99.90
37432;DHT22;23292;51.300;6.252;2024-01-15T02:25:40;1.40;99.90
37432;DHT22;23292;51.300;6.252;2024-01-15T02:28:15;1.40;99.90
37432;DHT22;23292;51.300;6.252;2024-01-15T02:30:43;1.40;99.90
37432;DHT22;23292;51.300;6.252;2024-01-15T02:33:11;1.50;99.90
37432;DHT22;23292;51.300;6.252;2024-01-15T02:35:38;1.50;99.90
37432;DHT22;23292;51.300;6.252;2024-01-15T02:38:05;1.50;99.90
37432;DHT22;23292;51.300;6.252;2024-01-15T02:40:33;1.50;99.90
37432;DHT22;23292;51.300;6.252;2024-01-15T02:43:00;1.50;99.90
37432;DHT22;23292;51.300;6.252;2024-01-15T02:45:27;1.50;99.90
37432;DHT22;23292;51.300;6.252;2024-01-15T02:47:54;1.50;99.90
37432;DHT22;23292;51.300;6.252;2024-01-15T02:50:21;1.50;99.90
37432;DHT22;23292;51.300;6.252;2024-01-15T02:52:48;1.60;99.90
37432;DHT22;23292;51.300;6.252;2024-01-15T02:55:14;1.50;99.90
37432;DHT22;23292;51.300;6.252;2024-01-15T02:57:41;1.60;99.90
37432;DHT22;23292;51.300;6.252;2024-01-15T03:00:08;1.60;99.90
37432;DHT22;23292;51.300;6.252;2024-01-15T03:02:37;1.50;99.90
37432;DHT22;23292;51.300;6.252;2024-01-15T03:05:12;1.50;99.90
37432;DHT22;23292;51.300;6.252;2024-01-15T03:07:39;1.50;99.90
37432;DHT22;23292;51.300;6.252;2024-01-15T03:10:06;1.50;99.90
37432;DHT22;23292;51.300;6.252;2024-01-15T03:12:33;1.40;99.90
37432;DHT22;23292;51.300;6.252;2024-01-15T03:15:00;1.40;99.90
37432;DHT22;23292;51.300;6.252;2024-01-15T03:17:27;1.40;99.90
37432;DHT22;23292;51.300;6.252;2024-01-15T03:19:54;1.30;99.90
37432;DHT22;23292;51.300;6.252;2024-01-15T03:22:21;1.50;99.90
37432;DHT22;23292;51.300;6.252;2024-01-15T03:24:48;1.50;99.90
37432;DHT22;23292;51.300;6.252;2024-01-15T03:27:15;1.50;99.90
37432;DHT22;23292;51.300;6.252;2024-01-15T03:29:42;1.50;99.90
37432;DHT22;23292;51.300;6.252;2024-01-15T03:32:09;1.40;99.90
37432;DHT22;23292;51.300;6.252;2024-01-15T03:34:36;1.40;99.90
37432;DHT22;23292;51.300;6.252;2024-01-15T03:37:03;1.30;99.90
37432;DHT22;23292;51.300;6.252;2024-01-15T03:39:30;1.20;99.90
37432;DHT22;23292;51.300;6.252;2024-01-15T03:41:57;1.10;99.90
37432;DHT22;23292;51.300;6.252;2024-01-15T03:44:24;1.00;99.90
37432;DHT22;23292;51.300;6.252;2024-01-15T03:46:51;1.10;99.90
37432;DHT22;23292;51.300;6.252;2024-01-15T03:49:18;1.10;99.90
37432;DHT22;23292;51.300;6.252;2024-01-15T03:51:45;1.10;99.90
37432;DHT22;23292;51.300;6.252;2024-01-15T03:54:12;1.20;99.90
37432;DHT22;23292;51.300;6.252;2024-01-15T03:56:39;1.20;99.90
37432;DHT22;23292;51.300;6.252;2024-01-15T03:59:06;1.20;99.90
37432;DHT22;23292;51.300;6.252;2024-01-15T04:01:33;1.10;99.90
37432;DHT22;23292;51.300;6.252;2024-01-15T04:04:00;1.20;99.90
37432;DHT22;23292;51.300;6.252;2024-01-15T04:06:27;1.20;99.90
37432;DHT22;23292;51.300;6.252;2024-01-15T04:08:54;1.30;99.90
37432;DHT22;23292;51.300;6.252;2024-01-15T04:11:20;1.30;99.90
37432;DHT22;23292;51.300;6.252;2024-01-15T04:13:49;1.30;99.90
37432;DHT22;23292;51.300;6.252;2024-01-15T04:16:16;1.30;99.90
37432;DHT22;23292;51.300;6.252;2024-01-15T04:18:42;1.20;99.90
37432;DHT22;23292;51.300;6.252;2024-01-15T04:21:09;1.20;99.90
37432;DHT22;23292;51.300;6.252;2024-01-15T04:23:36;1.20;99.90
37432;DHT22;23292;51.300;6.252;2024-01-15T04:26:03;1.10;99.90
37432;DHT22;23292;51.300;6.252;2024-01-15T04:28:30;1.00;99.90
37432;DHT22;23292;51.300;6.252;2024-01-15T04:30:56;1.10;99.90
37432;DHT22;23292;51.300;6.252;2024-01-15T04:33:23;1.10;99.90
37432;DHT22;23292;51.300;6.252;2024-01-15T04:35:51;1.20;99.90
37432;DHT22;23292;51.300;6.252;2024-01-15T04:38:18;1.20;99.90
37432;DHT22;23292;51.300;6.252;2024-01-15T04:40:45;1.30;99.90
37432;DHT22;23292;51.300;6.252;2024-01-15T04:43:12;1.30;99.90
37432;DHT22;23292;51.300;6.252;2024-01-15T04:45:39;1.40;99.90
37432;DHT22;23292;51.300;6.252;2024-01-15T04:48:06;1.20;99.90
37432;DHT22;23292;51.300;6.252;2024-01-15T04:50:33;1.20;99.90
37432;DHT22;23292;51.300;6.252;2024-01-15T04:52:59;1.30;99.90
37432;DHT22;23292;51.300;6.252;2024-01-15T04:55:26;1.20;99.90
37432;DHT22;23292;51.300;6.252;2024-01-15T04:57:53;1.30;99.90
37432;DHT22;23292;51.300;6.252;2024-01-15T05:00:20;1.20;99.90
37432;DHT22;23292;51.300;6.252;2024-01-15T05:02:47;1.30;99.90
37432;DHT22;23292;51.300;6.252;2024-01-15T05:05:13;1.20;99.90
37432;DHT22;23292;51.300;6.252;2024-01-15T05:07:40;1.30;99.90
37432;DHT22;23292;51.300;6.252;2024-01-15T05:10:07;1.30;99.90
37432;DHT22;23292;51.300;6.252;2024-01-15T05:12:34;1.30;99.90
37432;DHT22;23292;51.300;6.252;2024-01-15T05:15:01;1.30;99.90
37432;DHT22;23292;51.300;6.252;2024-01-15T05:17:28;1.30;99.90
37432;DHT22;23292;51.300;6.252;2024-01-15T05:19:55;1.30;99.90
37432;DHT22;23292;51.300;6.252;2024-01-15T05:22:22;1.40;99.90
37432;DHT22;23292;51.300;6.252;2024-01-15T05:24:51;1.40;99.90
37432;DHT22;23292;51.300;6.252;2024-01-15T05:27:18;1.40;99.90
37432;DHT22;23292;51.300;6.252;2024-01-15T05:29:45;1.50;99.90
37432;DHT22;23292;51.300;6.252;2024-01-15T05:32:12;1.60;99.90
37432;DHT22;23292;51.300;6.252;2024-01-15T05:34:39;1.50;99.90
37432;DHT22;23292;51.300;6.252;2024-01-15T05:37:06;1.50;99.90
37432;DHT22;23292;51.300;6.252;2024-01-15T05:39:33;1.50;99.90
37432;DHT22;23292;51.300;6.252;2024-01-15T05:42:00;1.50;99.90
37432;DHT22;23292;51.300;6.252;2024-01-15T05:44:27;1.50;99.90
37432;DHT22;23292;51.300;6.252;2024-01-15T05:46:53;1.50;99.90
37432;DHT22;23292;51.300;6.252;2024-01-15T05:49:21;1.60;99.90
37432;DHT22;23292;51.300;6.252;2024-01-15T05:51:49;1.60;99.90
37432;DHT22;23292;51.300;6.252;2024-01-15T05:54:17;1.60;99.90
37432;DHT22;23292;51.300;6.252;2024-01-15T05:56:44;1.60;99.90
37432;DHT22;23292;51.300;6.252;2024-01-15T05:59:10;1.60;99.90
37432;DHT22;23292;51.300;6.252;2024-01-15T06:01:41;1.60;99.90
37432;DHT22;23292;51.300;6.252;2024-01-15T06:04:08;1.60;99.90
37432;DHT22;23292;51.300;6.252;2024-01-15T06:06:35;1.60;99.90
37432;DHT22;23292;51.300;6.252;2024-01-15T06:09:02;1.70;99.90
37432;DHT22;23292;51.300;6.252;2024-01-15T06:11:32;1.70;99.90
37432;DHT22;23292;51.300;6.252;2024-01-15T06:13:59;1.60;99.90
37432;DHT22;23292;51.300;6.252;2024-01-15T06:16:28;1.60;99.90
37432;DHT22;23292;51.300;6.252;2024-01-15T06:18:56;1.50;99.90
37432;DHT22;23292;51.300;6.252;2024-01-15T06:21:23;1.50;99.90
37432;DHT22;23292;51.300;6.252;2024-01-15T06:23:51;1.50;99.90
37432;DHT22;23292;51.300;6.252;2024-01-15T06:26:18;1.50;99.90
37432;DHT22;23292;51.300;6.252;2024-01-15T06:28:44;1.40;99.90
37432;DHT22;23292;51.300;6.252;2024-01-15T06:31:12;1.40;99.90
37432;DHT22;23292;51.300;6.252;2024-01-15T06:33:39;1.50;99.90
37432;DHT22;23292;51.300;6.252;2024-01-15T06:36:06;1.50;99.90
37432;DHT22;23292;51.300;6.252;2024-01-15T06:38:34;1.60;99.90
37432;DHT22;23292;51.300;6.252;2024-01-15T06:41:02;1.60;99.90
37432;DHT22;23292;51.300;6.252;2024-01-15T06:43:29;1.60;99.90
37432;DHT22;23292;51.300;6.252;2024-01-15T06:45:56;1.60;99.90
37432;DHT22;23292;51.300;6.252;2024-01-15T06:48:23;1.60;99.90
37432;DHT22;23292;51.300;6.252;2024-01-15T06:50:51;1.70;99.90
37432;DHT22;23292;51.300;6.252;2024-01-15T06:53:18;1.60;99.90
37432;DHT22;23292;51.300;6.252;2024-01-15T06:55:44;1.60;99.90
37432;DHT22;23292;51.300;6.252;2024-01-15T06:58:12;1.50;99.90
37432;DHT22;23292;51.300;6.252;2024-01-15T07:00:40;1.60;99.90
37432;DHT22;23292;51.300;6.252;2024-01-15T07:03:07;1.70;99.90
37432;DHT22;23292;51.300;6.252;2024-01-15T07:05:34;1.70;99.90
37432;DHT22;23292;51.300;6.252;2024-01-15T07:08:01;1.80;99.90
37432;DHT22;23292;51.300;6.252;2024-01-15T07:10:28;1.80;99.90
37432;DHT22;23292;51.300;6.252;2024-01-15T07:12:55;1.70;99.90
37432;DHT22;23292;51.300;6.252;2024-01-15T07:15:22;1.80;99.90
37432;DHT22;23292;51.300;6.252;2024-01-15T07:17:49;1.70;99.90
37432;DHT22;23292;51.300;6.252;2024-01-15T07:20:16;1.80;99.90
37432;DHT22;23292;51.300;6.252;2024-01-15T07:22:43;1.80;99.90
37432;DHT22;23292;51.300;6.252;2024-01-15T07:25:10;1.80;99.90
37432;DHT22;23292;51.300;6.252;2024-01-15T07:27:39;1.80;99.90
37432;DHT22;23292;51.300;6.252;2024-01-15T07:30:06;1.80;99.90
37432;DHT22;23292;51.300;6.252;2024-01-15T07:32:33;1.80;99.90
37432;DHT22;23292;51.300;6.252;2024-01-15T07:35:01;1.70;99.90
37432;DHT22;23292;51.300;6.252;2024-01-15T07:37:28;1.70;99.90
37432;DHT22;23292;51.300;6.252;2024-01-15T07:39:55;1.70;99.90
37432;DHT22;23292;51.300;6.252;2024-01-15T07:42:22;1.60;99.90
37432;DHT22;23292;51.300;6.252;2024-01-15T07:44:49;1.70;99.90
37432;DHT22;23292;51.300;6.252;2024-01-15T07:47:18;1.70;99.90
37432;DHT22;23292;51.300;6.252;2024-01-15T07:49:45;1.70;99.90
37432;DHT22;23292;51.300;6.252;2024-01-15T07:52:12;1.70;99.90
37432;DHT22;23292;51.300;6.252;2024-01-15T07:54:39;1.70;99.90
37432;DHT22;23292;51.300;6.252;2024-01-15T07:57:06;1.70;99.90
37432;DHT22;23292;51.300;6.252;2024-01-15T07:59:35;1.60;99.90
37432;DHT22;23292;51.300;6.252;2024-01-15T08:02:03;1.50;99.90
37432;DHT22;23292;51.300;6.252;2024-01-15T08:04:29;1.50;99.90
37432;DHT22;23292;51.300;6.252;2024-01-15T08:06:58;1.40;99.90
37432;DHT22;23292;51.300;6.252;2024-01-15T08:09:24;1.40;99.90
37432;DHT22;23292;51.300;6.252;2024-01-15T08:11:51;1.30;99.90
37432;DHT22;23292;51.300;6.252;2024-01-15T08:14:18;1.40;99.90
37432;DHT22;23292;51.300;6.252;2024-01-15T08:16:46;1.40;99.90
37432;DHT22;23292;51.300;6.252;2024-01-15T08:19:12;1.40;99.90
37432;DHT22;23292;51.300;6.252;2024-01-15T08:21:41;1.40;99.90
37432;DHT22;23292;51.300;6.252;2024-01-15T08:24:08;1.40;99.90
37432;DHT22;23292;51.300;6.252;2024-01-15T08:26:35;1.40;99.90
37432;DHT22;23292;51.300;6.252;2024-01-15T08:29:02;1.50;99.90
37432;DHT22;23292;51.300;6.252;2024-01-15T08:31:29;1.50;99.90
37432;DHT22;23292;51.300;6.252;2024-01-15T08:33:56;1.50;99.90
37432;DHT22;23292;51.300;6.252;2024-01-15T08:36:23;1.40;99.90
37432;DHT22;23292;51.300;6.252;2024-01-15T08:38:51;1.40;99.90
37432;DHT22;23292;51.300;6.252;2024-01-15T08:41:18;1.40;99.90
37432;DHT22;23292;51.300;6.252;2024-01-15T08:43:45;1.40;99.90
37432;DHT22;23292;51.300;6.252;2024-01-15T08:46:11;1.40;99.90
37432;DHT22;23292;51.300;6.252;2024-01-15T08:48:38;1.40;99.90
37432;DHT22;23292;51.300;6.252;2024-01-15T08:51:06;1.40;99.90
37432;DHT22;23292;51.300;6.252;2024-01-15T08:53:34;1.50;99.90
37432;DHT22;23292;51.300;6.252;2024-01-15T08:56:02;1.50;99.90
37432;DHT22;23292;51.300;6.252;2024-01-15T08:58:29;1.50;99.90
37432;DHT22;23292;51.300;6.252;2024-01-15T09:00:56;1.50;99.90
37432;DHT22;23292;51.300;6.252;2024-01-15T09:03:25;1.50;99.90
37432;DHT22;23292;51.300;6.252;2024-01-15T09:05:52;1.50;99.90
37432;DHT22;23292;51.300;6.252;2024-01-15T09:08:19;1.60;99.90
37432;DHT22;23292;51.300;6.252;2024-01-15T09:10:46;1.60;99.90
37432;DHT22;23292;51.300;6.252;2024-01-15T09:13:13;1.60;99.90
37432;DHT22;23292;51.300;6.252;2024-01-15T09:15:40;1.60;99.90
37432;DHT22;23292;51.300;6.252;2024-01-15T09:18:07;1.60;99.90
37432;DHT22;23292;51.300;6.252;2024-01-15T09:20:35;1.80;99.90
37432;DHT22;23292;51.300;6.252;2024-01-15T09:23:02;1.70;99.90
37432;DHT22;23292;51.300;6.252;2024-01-15T09:25:29;1.70;99.90
37432;DHT22;23292;51.300;6.252;2024-01-15T09:27:56;1.70;99.90
37432;DHT22;23292;51.300;6.252;2024-01-15T09:30:24;1.60;99.90
37432;DHT22;23292;51.300;6.252;2024-01-15T09:32:51;1.60;99.90
37432;DHT22;23292;51.300;6.252;2024-01-15T09:35:18;1.60;99.90
37432;DHT22;23292;51.300;6.252;2024-01-15T09:37:47;1.60;99.90
37432;DHT22;23292;51.300;6.252;2024-01-15T09:40:15;1.70;99.90
37432;DHT22;23292;51.300;6.252;2024-01-15T09:42:44;1.70;99.90
37432;DHT22;23292;51.300;6.252;2024-01-15T09:45:13;1.90;99.90
37432;DHT22;23292;51.300;6.252;2024-01-15T09:47:41;1.90;99.90
37432;DHT22;23292;51.300;6.252;2024-01-15T09:50:13;1.90;99.90
37432;DHT22;23292;51.300;6.252;2024-01-15T09:52:41;1.90;99.90
37432;DHT22;23292;51.300;6.252;2024-01-15T09:55:09;1.90;99.90
37432;DHT22;23292;51.300;6.252;2024-01-15T09:57:37;1.90;99.90
37432;DHT22;23292;51.300;6.252;2024-01-15T10:00:06;1.90;99.90
37432;DHT22;23292;51.300;6.252;2024-01-15T10:02:35;1.90;99.90
37432;DHT22;23292;51.300;6.252;2024-01-15T10:05:02;1.80;99.90
37432;DHT22;23292;51.300;6.252;2024-01-15T10:07:30;1.90;99.90
37432;DHT22;23292;51.300;6.252;2024-01-15T10:10:01;2.10;99.90
37432;DHT22;23292;51.300;6.252;2024-01-15T10:12:30;2.20;99.90
37432;DHT22;23292;51.300;6.252;2024-01-15T10:14:57;2.30;99.90
37432;DHT22;23292;51.300;6.252;2024-01-15T10:17:25;2.20;99.90
37432;DHT22;23292;51.300;6.252;2024-01-15T10:19:55;2.10;99.90
37432;DHT22;23292;51.300;6.252;2024-01-15T10:22:22;2.00;99.90
37432;DHT22;23292;51.300;6.252;2024-01-15T10:24:51;2.00;99.90
37432;DHT22;23292;51.300;6.252;2024-01-15T10:27:18;2.10;99.90
37432;DHT22;23292;51.300;6.252;2024-01-15T10:29:45;2.10;99.90
37432;DHT22;23292;51.300;6.252;2024-01-15T10:32:12;2.20;99.90
37432;DHT22;23292;51.300;6.252;2024-01-15T10:34:40;2.30;99.90
37432;DHT22;23292;51.300;6.252;2024-01-15T10:37:10;2.40;99.90
37432;DHT22;23292;51.300;6.252;2024-01-15T10:39:37;2.40;99.90
37432;DHT22;23292;51.300;6.252;2024-01-15T10:42:06;2.40;99.90
37432;DHT22;23292;51.300;6.252;2024-01-15T10:44:34;2.50;99.90
37432;DHT22;23292;51.300;6.252;2024-01-15T10:47:02;2.40;99.90
37432;DHT22;23292;51.300;6.252;2024-01-15T10:49:29;2.40;99.90
37432;DHT22;23292;51.300;6.252;2024-01-15T10:52:01;2.50;99.90
37432;DHT22;23292;51.300;6.252;2024-01-15T10:54:28;2.60;99.90
37432;DHT22;23292;51.300;6.252;2024-01-15T10:56:56;2.70;99.90
37432;DHT22;23292;51.300;6.252;2024-01-15T10:59:24;2.70;99.90
37432;DHT22;23292;51.300;6.252;2024-01-15T11:01:53;2.90;99.90
37432;DHT22;23292;51.300;6.252;2024-01-15T11:04:23;2.90;99.90
37432;DHT22;23292;51.300;6.252;2024-01-15T11:06:53;2.90;99.90
37432;DHT22;23292;51.300;6.252;2024-01-15T11:09:24;3.00;99.90
37432;DHT22;23292;51.300;6.252;2024-01-15T11:11:54;2.90;99.90
37432;DHT22;23292;51.300;6.252;2024-01-15T11:14:39;2.90;99.90
37432;DHT22;23292;51.300;6.252;2024-01-15T11:17:08;2.90;99.90
37432;DHT22;23292;51.300;6.252;2024-01-15T11:19:46;2.90;99.90
37432;DHT22;23292;51.300;6.252;2024-01-15T11:25:13;2.90;99.90
37432;DHT22;23292;51.300;6.252;2024-01-15T11:27:45;2.90;99.90
37432;DHT22;23292;51.300;6.252;2024-01-15T11:30:19;3.10;99.90
37432;DHT22;23292;51.300;6.252;2024-01-15T11:32:49;3.00;99.90
37432;DHT22;23292;51.300;6.252;2024-01-15T11:35:16;3.30;99.90
37432;DHT22;23292;51.300;6.252;2024-01-15T11:40:36;3.50;99.90
37432;DHT22;23292;51.300;6.252;2024-01-15T11:43:07;3.60;99.90
37432;DHT22;23292;51.300;6.252;2024-01-15T11:45:36;3.70;99.90
37432;DHT22;23292;51.300;6.252;2024-01-15T11:50:49;3.50;99.90
37432;DHT22;23292;51.300;6.252;2024-01-15T11:55:45;3.10;99.90
37432;DHT22;23292;51.300;6.252;2024-01-15T11:58:13;3.00;99.90
37432;DHT22;23292;51.300;6.252;2024-01-15T12:00:44;3.00;99.90
37432;DHT22;23292;51.300;6.252;2024-01-15T12:03:12;2.90;99.90
37432;DHT22;23292;51.300;6.252;2024-01-15T12:05:40;3.00;99.90
37432;DHT22;23292;51.300;6.252;2024-01-15T12:08:08;2.90;99.90
37432;DHT22;23292;51.300;6.252;2024-01-15T12:10:39;2.90;99.90
37432;DHT22;23292;51.300;6.252;2024-01-15T12:13:12;2.80;99.90
37432;DHT22;23292;51.300;6.252;2024-01-15T12:15:40;2.80;99.90
37432;DHT22;23292;51.300;6.252;2024-01-15T12:18:09;3.00;99.90
37432;DHT22;23292;51.300;6.252;2024-01-15T12:20:39;3.00;99.90
37432;DHT22;23292;51.300;6.252;2024-01-15T12:23:06;3.00;99.90
37432;DHT22;23292;51.300;6.252;2024-01-15T12:25:36;3.10;99.90
37432;DHT22;23292;51.300;6.252;2024-01-15T12:28:04;3.20;99.90
37432;DHT22;23292;51.300;6.252;2024-01-15T12:30:33;3.20;99.90
37432;DHT22;23292;51.300;6.252;2024-01-15T12:33:04;3.10;99.90
37432;DHT22;23292;51.300;6.252;2024-01-15T12:35:33;3.10;99.90
37432;DHT22;23292;51.300;6.252;2024-01-15T12:38:01;3.00;99.90
37432;DHT22;23292;51.300;6.252;2024-01-15T12:40:31;3.00;99.90
37432;DHT22;23292;51.300;6.252;2024-01-15T12:43:02;2.90;99.90
37432;DHT22;23292;51.300;6.252;2024-01-15T12:45:30;2.80;99.90
37432;DHT22;23292;51.300;6.252;2024-01-15T12:47:58;2.80;99.90
37432;DHT22;23292;51.300;6.252;2024-01-15T12:50:26;2.90;99.90
37432;DHT22;23292;51.300;6.252;2024-01-15T12:52:53;3.00;99.90
37432;DHT22;23292;51.300;6.252;2024-01-15T12:55:21;3.20;99.90
37432;DHT22;23292;51.300;6.252;2024-01-15T12:57:49;3.50;99.90
37432;DHT22;23292;51.300;6.252;2024-01-15T13:00:19;3.70;99.90
37432;DHT22;23292;51.300;6.252;2024-01-15T13:02:46;3.60;99.90
37432;DHT22;23292;51.300;6.252;2024-01-15T13:05:13;3.20;99.90
37432;DHT22;23292;51.300;6.252;2024-01-15T13:07:41;3.10;99.90
37432;DHT22;23292;51.300;6.252;2024-01-15T13:10:10;3.00;99.90
37432;DHT22;23292;51.300;6.252;2024-01-15T13:12:37;2.90;99.90
37432;DHT22;23292;51.300;6.252;2024-01-15T13:15:05;2.80;99.90
37432;DHT22;23292;51.300;6.252;2024-01-15T13:17:36;2.70;99.90
37432;DHT22;23292;51.300;6.252;2024-01-15T13:20:03;2.60;99.90
37432;DHT22;23292;51.300;6.252;2024-01-15T13:22:30;2.60;99.90
37432;DHT22;23292;51.300;6.252;2024-01-15T13:24:59;2.60;99.90
37432;DHT22;23292;51.300;6.252;2024-01-15T13:27:27;2.50;99.90
37432;DHT22;23292;51.300;6.252;2024-01-15T13:29:55;2.50;99.90
37432;DHT22;23292;51.300;6.252;2024-01-15T13:32:25;2.50;99.90
37432;DHT22;23292;51.300;6.252;2024-01-15T13:34:56;2.50;99.90
37432;DHT22;23292;51.300;6.252;2024-01-15T13:37:23;2.50;99.90
37432;DHT22;23292;51.300;6.252;2024-01-15T13:39:53;2.50;99.90
37432;DHT22;23292;51.300;6.252;2024-01-15T13:42:21;2.40;99.90
37432;DHT22;23292;51.300;6.252;2024-01-15T13:44:50;2.50;99.90
37432;DHT22;23292;51.300;6.252;2024-01-15T13:47:18;2.60;99.90
37432;DHT22;23292;51.300;6.252;2024-01-15T13:49:45;2.70;99.90
37432;DHT22;23292;51.300;6.252;2024-01-15T13:52:13;2.70;99.90
37432;DHT22;23292;51.300;6.252;2024-01-15T13:54:40;2.70;99.90
37432;DHT22;23292;51.300;6.252;2024-01-15T13:57:17;2.60;99.90
37432;DHT22;23292;51.300;6.252;2024-01-15T13:59:45;2.70;99.90
37432;DHT22;23292;51.300;6.252;2024-01-15T14:02:11;2.60;99.90
37432;DHT22;23292;51.300;6.252;2024-01-15T14:04:42;2.70;99.90
37432;DHT22;23292;51.300;6.252;2024-01-15T14:07:09;2.70;99.90
37432;DHT22;23292;51.300;6.252;2024-01-15T14:09:36;2.60;99.90
37432;DHT22;23292;51.300;6.252;2024-01-15T14:12:05;2.60;99.90
37432;DHT22;23292;51.300;6.252;2024-01-15T14:14:33;2.60;99.90
37432;DHT22;23292;51.300;6.252;2024-01-15T14:16:59;2.50;99.90
37432;DHT22;23292;51.300;6.252;2024-01-15T14:19:26;2.50;99.90
37432;DHT22;23292;51.300;6.252;2024-01-15T14:21:54;2.40;99.90
37432;DHT22;23292;51.300;6.252;2024-01-15T14:24:22;2.40;99.90
37432;DHT22;23292;51.300;6.252;2024-01-15T14:26:49;2.50;99.90
37432;DHT22;23292;51.300;6.252;2024-01-15T14:29:15;2.40;99.90
37432;DHT22;23292;51.300;6.252;2024-01-15T14:31:42;2.50;99.90
37432;DHT22;23292;51.300;6.252;2024-01-15T14:34:09;2.40;99.90
37432;DHT22;23292;51.300;6.252;2024-01-15T14:36:38;2.40;99.90
37432;DHT22;23292;51.300;6.252;2024-01-15T14:39:05;2.40;99.90
37432;DHT22;23292;51.300;6.252;2024-01-15T14:41:32;2.40;99.90
37432;DHT22;23292;51.300;6.252;2024-01-15T14:43:58;2.30;99.90
37432;DHT22;23292;51.300;6.252;2024-01-15T14:46:25;2.30;99.90
37432;DHT22;23292;51.300;6.252;2024-01-15T14:48:54;2.30;99.90
37432;DHT22;23292;51.300;6.252;2024-01-15T14:51:21;2.30;99.90
37432;DHT22;23292;51.300;6.252;2024-01-15T14:53:48;2.20;99.90
37432;DHT22;23292;51.300;6.252;2024-01-15T14:56:14;2.30;99.90
37432;DHT22;23292;51.300;6.252;2024-01-15T14:58:44;2.20;99.90
37432;DHT22;23292;51.300;6.252;2024-01-15T15:01:12;2.20;99.90
37432;DHT22;23292;51.300;6.252;2024-01-15T15:03:39;2.20;99.90
37432;DHT22;23292;51.300;6.252;2024-01-15T15:06:07;2.20;99.90
37432;DHT22;23292;51.300;6.252;2024-01-15T15:08:37;2.10;99.90
37432;DHT22;23292;51.300;6.252;2024-01-15T15:11:04;2.00;99.90
37432;DHT22;23292;51.300;6.252;2024-01-15T15:13:31;2.00;99.90
37432;DHT22;23292;51.300;6.252;2024-01-15T15:16:15;2.10;99.90
37432;DHT22;23292;51.300;6.252;2024-01-15T15:18:42;2.10;99.90
37432;DHT22;23292;51.300;6.252;2024-01-15T15:21:11;2.00;99.90
37432;DHT22;23292;51.300;6.252;2024-01-15T15:23:38;1.90;99.90
37432;DHT22;23292;51.300;6.252;2024-01-15T15:26:05;1.90;99.90
37432;DHT22;23292;51.300;6.252;2024-01-15T15:28:32;1.90;99.90
37432;DHT22;23292;51.300;6.252;2024-01-15T15:31:04;1.80;99.90
37432;DHT22;23292;51.300;6.252;2024-01-15T15:33:31;1.80;99.90
37432;DHT22;23292;51.300;6.252;2024-01-15T15:35:58;1.80;99.90
37432;DHT22;23292;51.300;6.252;2024-01-15T15:38:26;1.80;99.90
37432;DHT22;23292;51.300;6.252;2024-01-15T15:40:53;1.80;99.90
37432;DHT22;23292;51.300;6.252;2024-01-15T15:43:23;1.80;99.90
37432;DHT22;23292;51.300;6.252;2024-01-15T15:45:50;1.80;99.90
37432;DHT22;23292;51.300;6.252;2024-01-15T15:48:18;1.70;99.90
37432;DHT22;23292;51.300;6.252;2024-01-15T15:50:46;1.70;99.90
37432;DHT22;23292;51.300;6.252;2024-01-15T15:53:14;1.70;99.90
37432;DHT22;23292;51.300;6.252;2024-01-15T15:55:41;1.70;99.90
37432;DHT22;23292;51.300;6.252;2024-01-15T15:58:08;1.60;99.90